Kearny, NJ (07032)

8:21 PM EDT on September 17, 2014 (GMT -0400)
APRSWXNET KEARNY, NJ | Change Station
CLOSE
Current Station
Personal Weather Station
Location: Kearny, NJ
Elevation: 98 ft
Nearby Weather Stations

Elev 98 ft 40.77 °N, 74.14 °W | Updated 8 seconds ago

Clear
Clear
62.4 °F
Feels Like 62.4 °F
N
0.0
Wind Variable Wind from SSW
Gusts 0.0 mph

Today
High -- | Low -- °F
--% Chance of Precip.
Yesterday
High -- | Low -- °F
Precip. -- in
6:39 AM 7:02 PM
Waning Crescent, 32% visible
Pressure 29.98 in
Visibility 10.0 miles
Clouds Few 6000 ft
Scattered Clouds 25000 ft
Dew Point 46 °F
Humidity 54%
Rainfall 0.16 in
Snow Depth Not available.
UV 0 out of 12
Pollen 3.70 out of 12
Ozone Good
PM2.5 Good
Flu Activity Not available.
METAR KEWR 172351Z 31005KT 10SM FEW060 SCT250 20/06 A2998 RMK AO2 SLP150 T02000061 10233 20200 51006 $

More Conditions Fewer Conditions

Pressure 29.98 in
Visibility 10.0 miles
Clouds Few 6000 ft
Scattered Clouds 25000 ft
Dew Point 46 °F
Humidity 54%
Rainfall 0.16 in
Snow Depth Not available.
UV 0 out of 12
Pollen 3.70 out of 12
Ozone Good
PM2.5 Good
Flu Activity Not available.
METAR KEWR 172351Z 31005KT 10SM FEW060 SCT250 20/06 A2998 RMK AO2 SLP150 T02000061 10233 20200 51006 $

More Conditions Fewer Conditions

10-Day Weather Forecast

Almanac

Astronomy

Sep. 17, 2014 Rise Set
Actual Time 6:39 AM EDT 7:02 PM EDT
Civil Twilight 6:11 AM EDT 7:29 PM EDT
Nautical Twilight 5:39 AM EDT 8:01 PM EDT
Astronomical Twilight 5:06 AM EDT 8:34 PM EDT
Moon 12:35 AM EDT (9/17) 3:11 PM EDT (9/17)
Length of Visible Light 13h 17m
Length of Day
12h 23m
Tomorrow will be 2m 40s shorter.
Waning Crescent, 32% of the Moon is Illuminated
Today
Waning Crescent
Sep 24
New
Oct 1
First Quarter
Oct 8
Full
Oct 15
Last Quarter

Today's Extremes

State Highs State Lows

Community

WunderPhotos

Upload Photos

1,754,212 photos uploaded!

Nearby

Air Quality

  Air Quality AQ Index Pollutant
Yesterday Good
OZONE
Yesterday Good
PM2.5
Current Good
OZONE
Current Good
PM2.5
Wednesday Good
PM2.5
Wednesday Good
OZONE
Thursday Moderate
PM2.5
Thursday Good
OZONE

Snow Depth

Station Depth Elevation
No new snow has been reported.

Earthquake Activity

City Distance Mag. Time & Date
No recent earthquake activity has been reported nearby.
Minimum magnitude displayed is 2.5.

Coastal Water Temperatures

Place Temperature
Sandy Hook, NJ 70.0 °F
The Battery, NY 71.1 °F
Bergen Point West Reach, NJ 71.1 °F

Nearby Weather Stations